Time;durP1;ratioP1;P1;durP2;ratioP2;P2;SDS_P1;SDS_P2;PMS_P1;PMS_P2;Temp;Humidity;BMP_temperature;BMP_pressure;BME280_temperature;BME280_humidity;BME280_pressure;Samples;Min_cycle;Max_cycle;Signal;HPM_P1;HPM_P2
2023/06/24 00:02:06;;;;;;;9.30;4.40;;;18.50;99.90;;;;;;4998459;28;20121;-73
2023/06/24 00:04:31;;;;;;;9.07;4.90;;;18.60;99.90;;;;;;4998818;28;20026;-71
2023/06/24 00:06:59;;;;;;;8.90;4.82;;;18.40;99.90;;;;;;4998481;28;20066;-70
2023/06/24 00:09:29;;;;;;;7.03;4.13;;;18.30;99.90;;;;;;4997824;28;20023;-70
2023/06/24 00:11:56;;;;;;;7.38;4.70;;;18.30;99.90;;;;;;4999020;28;20079;-71
2023/06/24 00:14:24;;;;;;;10.25;5.38;;;18.30;99.90;;;;;;4999362;28;20022;-75
2023/06/24 00:16:53;;;;;;;6.25;4.35;;;18.30;99.90;;;;;;4998283;28;20026;-73
2023/06/24 00:19:20;;;;;;;6.65;4.13;;;18.30;99.90;;;;;;4998320;28;20076;-73
2023/06/24 00:21:47;;;;;;;7.60;4.35;;;18.30;99.90;;;;;;4998406;28;20057;-71
2023/06/24 00:24:12;;;;;;;7.63;4.60;;;18.30;99.90;;;;;;4998005;28;20026;-69
2023/06/24 00:26:38;;;;;;;7.60;4.20;;;18.20;99.90;;;;;;4997745;28;20036;-69
2023/06/24 00:29:05;;;;;;;6.72;4.00;;;18.20;99.90;;;;;;4981909;28;20122;-73
2023/06/24 00:31:30;;;;;;;8.27;3.85;;;18.10;99.90;;;;;;5003731;28;20065;-74
2023/06/24 00:33:56;;;;;;;7.30;4.22;;;18.20;99.90;;;;;;5001647;28;20022;-71
2023/06/24 00:36:21;;;;;;;7.82;4.78;;;18.20;99.90;;;;;;4997778;28;20022;-73
2023/06/24 00:38:48;;;;;;;8.52;5.05;;;18.00;99.90;;;;;;4997514;28;20114;-73
2023/06/24 00:41:16;;;;;;;11.13;5.40;;;18.00;99.90;;;;;;4997565;28;20030;-72
2023/06/24 00:43:41;;;;;;;11.15;5.47;;;17.90;99.90;;;;;;4997663;28;20037;-73
2023/06/24 00:46:07;;;;;;;7.18;4.43;;;17.70;99.90;;;;;;4998293;28;20027;-69
2023/06/24 00:48:33;;;;;;;8.65;4.93;;;17.70;99.90;;;;;;4997275;28;20022;-69
2023/06/24 00:50:58;;;;;;;9.90;5.22;;;17.70;99.90;;;;;;4998010;28;20022;-70
2023/06/24 00:53:24;;;;;;;10.40;4.70;;;17.70;99.90;;;;;;4997978;28;20026;-72
2023/06/24 00:55:52;;;;;;;9.48;6.15;;;17.80;99.90;;;;;;4997433;28;20117;-70
2023/06/24 00:58:20;;;;;;;8.75;5.78;;;17.90;99.90;;;;;;4997720;28;20022;-70
2023/06/24 01:00:48;;;;;;;9.45;5.35;;;17.90;99.90;;;;;;4997877;28;20030;-75
2023/06/24 01:03:13;;;;;;;9.85;5.18;;;17.90;99.90;;;;;;4997231;28;20049;-75
2023/06/24 01:05:40;;;;;;;9.10;5.47;;;17.80;99.90;;;;;;4997014;28;20026;-69
2023/06/24 01:08:06;;;;;;;9.07;5.10;;;17.80;99.90;;;;;;4997217;28;20026;-70
2023/06/24 01:10:32;;;;;;;7.53;5.10;;;17.70;99.90;;;;;;4997986;28;20026;-70
2023/06/24 01:12:57;;;;;;;9.60;4.88;;;17.70;99.90;;;;;;4996909;28;20113;-74
2023/06/24 01:15:24;;;;;;;9.15;5.15;;;17.70;99.90;;;;;;4997593;28;20022;-75
2023/06/24 01:18:22;;;;;;;8.15;4.90;;;17.70;99.90;;;;;;4996836;28;20116;-73
2023/06/24 01:21:08;;;;;;;9.95;5.75;;;17.60;99.90;;;;;;4941415;29;20039;-69
2023/06/24 01:23:48;;;;;;;9.65;5.63;;;17.50;99.90;;;;;;4941709;29;20039;-75
2023/06/24 01:26:25;;;;;;;9.88;5.72;;;17.40;99.90;;;;;;4941901;29;20151;-69
2023/06/24 01:29:24;;;;;;;12.43;5.50;;;17.40;99.90;;;;;;4941325;29;20114;-69
2023/06/24 01:31:52;;;;;;;8.40;4.30;;;17.50;99.90;;;;;;4941223;29;20031;-75
2023/06/24 01:34:34;;;;;;;7.88;5.10;;;17.50;99.90;;;;;;4941447;29;20073;-71
2023/06/24 01:37:10;;;;;;;7.40;5.05;;;17.40;99.90;;;;;;4941833;29;20086;-75
2023/06/24 01:39:42;;;;;;;9.05;5.07;;;17.50;99.90;;;;;;4941392;29;20118;-69
2023/06/24 01:42:11;;;;;;;7.25;4.80;;;17.40;99.90;;;;;;4941886;29;20027;-75
2023/06/24 01:44:40;;;;;;;6.47;4.38;;;17.40;99.90;;;;;;4945206;29;20035;-73
2023/06/24 01:47:08;;;;;;;6.20;4.38;;;17.40;99.90;;;;;;4945157;29;20038;-74
2023/06/24 01:49:40;;;;;;;6.57;4.45;;;17.10;99.90;;;;;;4945599;29;20050;-75
2023/06/24 01:52:10;;;;;;;7.60;4.35;;;17.10;99.90;;;;;;4945135;29;20034;-73
2023/06/24 01:54:39;;;;;;;7.93;4.30;;;17.10;99.90;;;;;;4945624;29;20051;-73
2023/06/24 01:57:08;;;;;;;6.07;3.80;;;17.20;99.90;;;;;;4989326;28;20034;-70
2023/06/24 01:59:37;;;;;;;6.75;4.97;;;17.20;99.90;;;;;;5000576;28;20026;-75
2023/06/24 02:02:05;;;;;;;7.13;4.43;;;17.20;99.90;;;;;;5001315;28;20061;-71
2023/06/24 02:04:32;;;;;;;8.63;4.30;;;17.10;99.90;;;;;;5000787;28;20037;-69
2023/06/24 02:07:01;;;;;;;6.95;4.88;;;17.10;99.90;;;;;;5001121;28;20019;-73
2023/06/24 02:09:28;;;;;;;8.30;4.80;;;17.00;99.90;;;;;;5001070;28;20048;-73
2023/06/24 02:11:56;;;;;;;7.63;5.03;;;17.00;99.90;;;;;;5001283;28;20084;-69
2023/06/24 02:14:22;;;;;;;6.30;4.57;;;17.00;99.90;;;;;;5000603;28;20061;-73
2023/06/24 02:16:50;;;;;;;9.68;4.30;;;17.00;99.90;;;;;;5000778;28;20057;-69
2023/06/24 02:19:17;;;;;;;5.72;3.83;;;17.00;99.90;;;;;;5000624;28;20031;-74
2023/06/24 02:21:44;;;;;;;6.28;4.30;;;16.90;99.90;;;;;;5000554;28;20018;-69
2023/06/24 02:24:11;;;;;;;7.25;4.03;;;16.80;99.90;;;;;;5000052;28;20033;-73
2023/06/24 02:26:40;;;;;;;6.63;4.47;;;16.80;99.90;;;;;;4999815;28;20031;-70
2023/06/24 02:29:09;;;;;;;6.22;4.45;;;16.90;99.90;;;;;;5000075;28;20031;-73
2023/06/24 02:31:35;;;;;;;6.57;4.07;;;16.90;99.90;;;;;;4999851;28;20210;-71
2023/06/24 02:34:00;;;;;;;9.30;4.38;;;17.00;99.90;;;;;;5000255;28;20022;-71
2023/06/24 02:36:26;;;;;;;7.00;4.00;;;16.90;99.90;;;;;;5000625;28;20026;-74
2023/06/24 02:38:51;;;;;;;7.15;4.13;;;16.80;99.90;;;;;;4999880;28;20069;-69
2023/06/24 02:41:17;;;;;;;8.80;4.90;;;16.80;99.90;;;;;;5000488;28;20026;-74
2023/06/24 02:43:43;;;;;;;6.65;4.47;;;16.70;99.90;;;;;;5000466;28;20034;-73
2023/06/24 02:46:10;;;;;;;5.53;3.97;;;16.80;99.90;;;;;;5000201;28;20109;-69
2023/06/24 02:48:37;;;;;;;7.07;4.63;;;16.80;99.90;;;;;;4999741;28;20023;-71
2023/06/24 02:51:04;;;;;;;8.18;4.30;;;16.80;99.90;;;;;;4999525;28;20157;-73
2023/06/24 02:53:31;;;;;;;8.15;4.18;;;16.80;99.90;;;;;;5000439;28;20072;-75
2023/06/24 02:55:57;;;;;;;7.78;4.63;;;16.80;99.90;;;;;;4999374;28;20022;-68
2023/06/24 02:58:31;;;;;;;6.60;4.53;;;16.80;99.90;;;;;;4999704;28;20026;-75
2023/06/24 03:01:00;;;;;;;6.78;4.25;;;16.80;99.90;;;;;;5000641;28;20022;-74
2023/06/24 03:03:27;;;;;;;9.52;4.18;;;16.80;99.90;;;;;;4999575;28;20035;-69
2023/06/24 03:05:54;;;;;;;9.95;4.68;;;16.80;99.90;;;;;;5000190;28;20023;-71
2023/06/24 03:08:20;;;;;;;6.28;4.30;;;16.80;99.90;;;;;;5000068;28;20050;-75
2023/06/24 03:10:46;;;;;;;7.68;4.50;;;16.70;99.90;;;;;;4999459;28;20065;-70
2023/06/24 03:13:11;;;;;;;8.30;4.90;;;16.60;99.90;;;;;;4999408;28;20022;-69
2023/06/24 03:15:37;;;;;;;8.90;4.70;;;16.50;99.90;;;;;;4999369;28;20065;-75
2023/06/24 03:18:02;;;;;;;11.05;5.28;;;16.40;99.90;;;;;;4999573;28;20022;-70
2023/06/24 03:20:28;;;;;;;8.18;4.95;;;16.40;99.90;;;;;;4999445;28;20027;-69
2023/06/24 03:22:55;;;;;;;8.73;4.93;;;16.40;99.90;;;;;;5000343;28;20033;-71
2023/06/24 03:25:21;;;;;;;7.20;4.32;;;16.40;99.90;;;;;;4998933;28;20109;-69
2023/06/24 03:27:47;;;;;;;7.20;4.30;;;16.40;99.90;;;;;;4999124;28;20117;-74
2023/06/24 03:30:14;;;;;;;7.95;4.47;;;16.40;99.90;;;;;;4998859;28;20053;-70
2023/06/24 03:32:40;;;;;;;6.00;4.10;;;16.30;99.90;;;;;;4998571;28;20030;-70
2023/06/24 03:35:07;;;;;;;7.68;4.65;;;16.30;99.90;;;;;;4998707;28;20034;-70
2023/06/24 03:37:32;;;;;;;7.38;4.68;;;16.40;99.90;;;;;;4998959;28;20035;-70
2023/06/24 03:39:58;;;;;;;7.47;4.00;;;16.30;99.90;;;;;;5015821;28;20046;-75
2023/06/24 03:42:23;;;;;;;6.40;4.22;;;16.40;99.90;;;;;;4999637;28;20078;-75
2023/06/24 03:44:49;;;;;;;6.70;4.68;;;16.40;99.90;;;;;;4999424;28;20073;-69
2023/06/24 03:47:14;;;;;;;7.55;4.65;;;16.40;99.90;;;;;;4999250;28;20048;-69
2023/06/24 03:49:40;;;;;;;10.63;4.38;;;16.40;99.90;;;;;;4998536;28;20019;-75
2023/06/24 03:52:08;;;;;;;6.55;4.72;;;16.50;99.90;;;;;;4999716;28;20050;-75
2023/06/24 03:54:34;;;;;;;16.48;5.43;;;16.50;99.90;;;;;;4999660;28;20076;-69
2023/06/24 03:56:59;;;;;;;7.22;4.95;;;16.50;99.90;;;;;;4998667;28;20090;-71
2023/06/24 03:59:25;;;;;;;7.90;4.60;;;16.50;99.90;;;;;;4998255;28;20030;-69
2023/06/24 04:01:51;;;;;;;7.72;3.80;;;16.50;99.90;;;;;;4999100;28;20075;-71
2023/06/24 04:04:16;;;;;;;8.65;3.63;;;16.60;99.90;;;;;;4999226;28;20022;-74
2023/06/24 04:06:42;;;;;;;5.00;3.67;;;16.60;99.90;;;;;;4998894;28;20033;-75
2023/06/24 04:09:09;;;;;;;4.95;3.78;;;16.60;99.90;;;;;;4998768;28;20022;-75
2023/06/24 04:11:35;;;;;;;9.88;3.95;;;16.50;99.90;;;;;;4998930;28;20212;-69
2023/06/24 04:14:01;;;;;;;8.10;4.28;;;16.50;99.90;;;;;;4998744;28;20025;-69
2023/06/24 04:16:27;;;;;;;5.90;4.03;;;16.60;99.90;;;;;;4998103;28;20073;-69
2023/06/24 04:18:52;;;;;;;6.13;4.35;;;16.70;99.90;;;;;;4998573;28;20030;-75
2023/06/24 04:21:18;;;;;;;7.18;4.00;;;16.70;99.90;;;;;;4998156;28;20033;-73
2023/06/24 04:23:44;;;;;;;9.15;4.28;;;16.80;99.90;;;;;;4999224;28;20121;-75
2023/06/24 04:26:09;;;;;;;6.78;4.63;;;16.90;99.90;;;;;;4998215;28;20030;-73
2023/06/24 04:28:35;;;;;;;6.60;4.43;;;16.80;99.90;;;;;;4997746;28;20027;-75
2023/06/24 04:31:00;;;;;;;7.90;4.68;;;16.70;99.90;;;;;;4997981;28;20026;-74
2023/06/24 04:33:26;;;;;;;7.55;4.28;;;16.70;99.90;;;;;;4998305;28;20090;-69
2023/06/24 04:35:52;;;;;;;5.60;4.20;;;16.70;99.90;;;;;;4998762;28;20052;-69
2023/06/24 04:38:18;;;;;;;10.00;5.03;;;16.70;99.90;;;;;;4997424;28;20030;-74
2023/06/24 04:40:44;;;;;;;5.80;4.20;;;16.60;99.90;;;;;;4999227;28;20102;-69
2023/06/24 04:43:10;;;;;;;7.97;4.47;;;16.70;99.90;;;;;;4997404;28;20035;-74
2023/06/24 04:45:36;;;;;;;10.77;4.70;;;16.70;99.90;;;;;;5000452;28;20030;-69
2023/06/24 04:48:01;;;;;;;7.15;4.50;;;16.80;99.90;;;;;;4997997;28;20053;-75
2023/06/24 04:50:27;;;;;;;8.50;4.03;;;16.90;99.90;;;;;;4998268;28;20030;-69
2023/06/24 04:52:56;;;;;;;10.15;5.05;;;16.90;99.90;;;;;;4997928;28;20111;-69
2023/06/24 04:55:22;;;;;;;6.00;4.60;;;16.70;99.90;;;;;;4997233;28;20026;-75
2023/06/24 04:57:48;;;;;;;8.23;5.38;;;16.90;99.90;;;;;;4997433;28;20081;-75
2023/06/24 05:00:14;;;;;;;7.45;4.65;;;16.90;99.90;;;;;;4997353;28;20026;-72
2023/06/24 05:02:39;;;;;;;7.85;4.82;;;17.00;99.90;;;;;;4997420;28;20027;-71
2023/06/24 05:05:05;;;;;;;7.93;4.22;;;17.10;99.90;;;;;;4997080;28;20031;-70
2023/06/24 05:07:31;;;;;;;8.93;4.53;;;17.10;99.90;;;;;;4997212;28;20022;-69
2023/06/24 05:09:56;;;;;;;7.15;5.03;;;17.20;99.90;;;;;;4996839;28;20026;-70
2023/06/24 05:12:22;;;;;;;9.30;5.15;;;17.20;99.90;;;;;;4996891;28;20033;-73
2023/06/24 05:14:54;;;;;;;9.95;5.57;;;17.20;99.90;;;;;;4997344;28;20041;-75
2023/06/24 05:17:20;;;;;;;8.57;5.07;;;17.30;99.90;;;;;;4997419;28;20030;-71
2023/06/24 05:19:45;;;;;;;9.07;5.43;;;17.20;99.90;;;;;;4996845;28;20026;-71
2023/06/24 05:22:11;;;;;;;6.47;4.63;;;17.40;99.90;;;;;;4997454;28;20023;-69
2023/06/24 05:24:37;;;;;;;11.30;5.72;;;17.40;99.90;;;;;;4997075;28;20023;-73
2023/06/24 05:27:06;;;;;;;7.40;4.65;;;17.50;99.90;;;;;;4997116;28;20117;-71
2023/06/24 05:29:33;;;;;;;9.68;5.22;;;17.60;99.90;;;;;;4996837;28;20026;-69
2023/06/24 05:31:59;;;;;;;8.00;5.03;;;17.60;99.90;;;;;;4996607;28;20023;-73
2023/06/24 05:34:25;;;;;;;9.10;5.05;;;17.70;99.90;;;;;;4997202;28;20022;-73
2023/06/24 05:36:50;;;;;;;8.05;5.35;;;17.70;99.90;;;;;;4996629;28;20033;-69
2023/06/24 05:39:17;;;;;;;8.10;5.35;;;17.50;99.90;;;;;;4997103;28;20058;-71
2023/06/24 05:41:42;;;;;;;7.03;5.28;;;17.60;99.90;;;;;;4997003;28;20032;-73
2023/06/24 05:44:10;;;;;;;13.57;5.70;;;17.50;99.90;;;;;;4996934;28;20103;-71
2023/06/24 05:46:36;;;;;;;8.48;5.93;;;17.60;99.90;;;;;;4996686;28;20054;-71
2023/06/24 05:49:01;;;;;;;11.10;6.60;;;17.60;99.90;;;;;;4996788;28;20026;-73
2023/06/24 05:51:27;;;;;;;9.75;6.25;;;17.50;99.90;;;;;;4996845;28;20122;-71
2023/06/24 05:53:53;;;;;;;11.32;6.28;;;17.60;99.90;;;;;;4997300;28;20023;-73
2023/06/24 05:56:19;;;;;;;11.05;6.18;;;17.50;99.90;;;;;;4997281;28;20026;-73
2023/06/24 05:58:45;;;;;;;8.80;6.15;;;17.60;99.90;;;;;;4997348;28;20229;-73
2023/06/24 06:01:10;;;;;;;10.02;6.60;;;17.70;99.90;;;;;;4996802;28;20106;-71
2023/06/24 06:03:36;;;;;;;11.85;6.93;;;17.90;99.90;;;;;;4997380;28;20030;-71
2023/06/24 06:06:02;;;;;;;11.93;6.60;;;17.90;99.90;;;;;;4997462;28;20042;-73
2023/06/24 06:08:27;;;;;;;11.68;6.50;;;17.90;99.90;;;;;;4996293;28;20038;-71
2023/06/24 06:10:53;;;;;;;10.25;6.43;;;18.00;99.90;;;;;;4997137;28;20029;-69
2023/06/24 06:13:19;;;;;;;9.95;6.38;;;18.00;99.90;;;;;;4996438;28;20026;-69
2023/06/24 06:15:44;;;;;;;11.10;6.18;;;18.10;99.90;;;;;;4996649;28;20117;-75
2023/06/24 06:18:10;;;;;;;8.45;4.80;;;18.30;99.90;;;;;;4996372;28;20027;-70
2023/06/24 06:20:35;;;;;;;7.35;4.70;;;18.60;99.90;;;;;;4996510;28;20038;-71
2023/06/24 06:23:01;;;;;;;10.82;5.95;;;18.90;99.90;;;;;;4996265;28;20058;-75
2023/06/24 06:25:26;;;;;;;9.45;5.65;;;18.60;99.90;;;;;;4996984;28;20031;-69
2023/06/24 06:27:52;;;;;;;7.88;4.97;;;18.50;99.90;;;;;;4996621;28;20091;-73
2023/06/24 06:30:17;;;;;;;9.82;6.10;;;18.60;99.90;;;;;;4997661;28;20038;-69
2023/06/24 06:32:43;;;;;;;8.20;5.65;;;18.50;99.90;;;;;;5000731;28;20029;-70
2023/06/24 06:35:09;;;;;;;10.02;5.80;;;18.60;99.90;;;;;;4999813;28;20050;-71
2023/06/24 06:37:34;;;;;;;6.90;4.53;;;18.70;99.90;;;;;;4999529;28;20033;-71
2023/06/24 06:40:00;;;;;;;7.55;4.93;;;18.90;99.90;;;;;;5000775;28;20038;-71
2023/06/24 06:42:25;;;;;;;7.90;5.40;;;18.90;99.90;;;;;;5000294;28;20026;-73
2023/06/24 06:44:51;;;;;;;10.93;5.13;;;19.10;99.90;;;;;;4999934;28;20022;-74
2023/06/24 06:47:16;;;;;;;8.52;4.85;;;19.20;99.90;;;;;;4999754;28;20019;-73
2023/06/24 06:49:42;;;;;;;8.60;4.95;;;19.20;99.90;;;;;;5000650;28;20034;-76
2023/06/24 06:52:08;;;;;;;7.60;5.25;;;19.30;99.90;;;;;;4999709;28;20018;-76
2023/06/24 06:54:33;;;;;;;7.90;4.82;;;19.30;99.90;;;;;;5000145;28;20053;-76
2023/06/24 06:57:03;;;;;;;7.72;5.15;;;19.40;99.90;;;;;;4999904;28;20030;-76
2023/06/24 06:59:29;;;;;;;7.28;4.57;;;19.40;99.90;;;;;;4999722;28;20042;-76
2023/06/24 07:01:55;;;;;;;9.73;5.47;;;19.50;99.90;;;;;;5000139;28;20019;-75
2023/06/24 07:04:20;;;;;;;11.13;5.03;;;19.70;99.90;;;;;;5006146;28;20029;-75
2023/06/24 07:06:46;;;;;;;8.05;4.85;;;19.70;99.90;;;;;;4999652;28;20066;-73
2023/06/24 07:09:11;;;;;;;9.10;5.40;;;19.70;99.90;;;;;;5000146;28;20124;-74
2023/06/24 07:11:37;;;;;;;8.40;4.90;;;19.80;99.90;;;;;;4998996;28;20026;-72
2023/06/24 07:14:02;;;;;;;8.27;5.32;;;20.00;99.90;;;;;;4999428;28;20022;-70
2023/06/24 07:16:28;;;;;;;8.68;5.10;;;20.20;99.90;;;;;;4999004;28;20090;-71
2023/06/24 07:18:54;;;;;;;9.13;4.75;;;20.40;99.90;;;;;;4998899;28;20061;-75
2023/06/24 07:21:19;;;;;;;7.40;4.60;;;20.50;99.90;;;;;;4998875;28;20026;-70
2023/06/24 07:23:45;;;;;;;8.35;4.78;;;20.50;99.90;;;;;;4999245;28;20187;-70
2023/06/24 07:26:11;;;;;;;9.85;5.07;;;20.70;99.90;;;;;;4999213;28;20030;-75
2023/06/24 07:28:36;;;;;;;7.80;5.25;;;20.60;99.90;;;;;;4999137;28;20030;-75
2023/06/24 07:31:02;;;;;;;11.75;5.00;;;20.70;99.90;;;;;;4998729;28;20022;-75
2023/06/24 07:33:30;;;;;;;11.20;4.78;;;20.60;99.90;;;;;;4999279;28;20090;-75
2023/06/24 07:35:56;;;;;;;8.50;5.03;;;20.80;99.90;;;;;;5004631;28;20093;-75
2023/06/24 07:38:21;;;;;;;7.13;4.85;;;20.90;99.90;;;;;;5006854;28;20034;-75
2023/06/24 07:40:47;;;;;;;7.43;4.70;;;21.00;99.90;;;;;;5017960;28;20030;-75
2023/06/24 07:43:12;;;;;;;7.50;4.50;;;21.00;99.90;;;;;;5009512;28;20030;-76
2023/06/24 07:45:38;;;;;;;6.00;4.68;;;21.20;99.90;;;;;;5017880;28;20026;-75
2023/06/24 07:48:04;;;;;;;5.90;4.38;;;21.20;99.90;;;;;;5018023;28;20104;-76
2023/06/24 07:50:31;;;;;;;6.35;4.78;;;21.20;99.90;;;;;;5017694;28;20026;-76
2023/06/24 07:52:57;;;;;;;6.72;4.75;;;21.20;99.90;;;;;;5018112;28;20167;-75
2023/06/24 07:55:22;;;;;;;10.27;4.80;;;21.30;99.90;;;;;;5004762;28;20121;-76
2023/06/24 07:57:48;;;;;;;7.82;5.13;;;21.40;99.90;;;;;;4998355;28;20070;-75
2023/06/24 08:00:15;;;;;;;5.70;4.25;;;21.50;99.90;;;;;;5003364;28;20030;-76
2023/06/24 08:02:41;;;;;;;12.05;4.85;;;21.60;99.90;;;;;;5018028;28;20053;-76
2023/06/24 08:05:09;;;;;;;5.65;4.18;;;21.60;99.90;;;;;;5017774;28;20030;-76
2023/06/24 08:07:35;;;;;;;7.50;3.95;;;21.80;99.90;;;;;;5017823;28;20050;-76
2023/06/24 08:10:00;;;;;;;7.60;4.07;;;21.90;99.90;;;;;;5017628;28;20025;-75
2023/06/24 08:12:27;;;;;;;7.15;4.97;;;21.90;99.90;;;;;;5017948;28;20022;-76
2023/06/24 08:14:53;;;;;;;7.38;4.43;;;22.10;99.90;;;;;;5017597;28;20033;-75
2023/06/24 08:17:18;;;;;;;8.82;4.38;;;22.30;99.90;;;;;;5017562;28;20030;-77
2023/06/24 08:19:44;;;;;;;5.28;4.00;;;22.30;99.90;;;;;;5017483;28;20032;-78
2023/06/24 08:22:09;;;;;;;9.13;3.67;;;22.40;99.90;;;;;;5017575;28;20093;-78
2023/06/24 08:24:36;;;;;;;5.07;4.15;;;22.50;99.90;;;;;;5017068;28;20026;-78
2023/06/24 08:27:02;;;;;;;5.97;4.45;;;22.60;99.90;;;;;;5017515;28;20049;-78
2023/06/24 08:32:30;;;;;;;5.10;4.47;;;22.70;99.90;;;;;;5000191;28;20126;-78
2023/06/24 08:34:56;;;;;;;6.10;4.35;;;22.70;99.90;;;;;;5007825;28;20042;-78
2023/06/24 08:37:21;;;;;;;5.70;4.13;;;22.90;99.90;;;;;;5016993;28;20022;-77
2023/06/24 08:39:47;;;;;;;6.20;3.83;;;22.80;99.90;;;;;;5017296;28;20018;-78
2023/06/24 08:42:12;;;;;;;9.55;3.60;;;22.80;99.90;;;;;;5017007;28;20018;-78
2023/06/24 08:44:38;;;;;;;5.13;3.38;;;22.90;99.90;;;;;;5017216;28;20022;-79
2023/06/24 08:47:04;;;;;;;4.32;3.65;;;23.10;99.90;;;;;;5016994;28;20018;-77
2023/06/24 08:49:31;;;;;;;9.07;3.80;;;23.40;99.90;;;;;;5016757;28;20113;-73
2023/06/24 08:52:12;;;;;;;10.65;4.55;;;23.70;99.90;;;;;;5017332;28;20026;-73
2023/06/24 08:54:40;;;;;;;9.82;4.78;;;23.90;99.90;;;;;;5017295;28;20056;-73
2023/06/24 08:57:07;;;;;;;5.57;3.80;;;24.00;99.90;;;;;;5017085;28;20022;-73
2023/06/24 08:59:37;;;;;;;5.78;3.45;;;23.90;99.90;;;;;;5016857;28;20026;-74
2023/06/24 09:02:03;;;;;;;5.63;3.22;;;24.10;99.90;;;;;;5016976;28;20033;-77
2023/06/24 09:04:33;;;;;;;5.55;3.67;;;24.30;99.90;;;;;;5016944;28;20025;-77
2023/06/24 09:06:59;;;;;;;7.37;3.87;;;24.60;99.90;;;;;;5016756;28;20066;-77
2023/06/24 09:09:24;;;;;;;5.05;3.78;;;24.70;99.90;;;;;;5016700;28;20033;-77
2023/06/24 09:12:01;;;;;;;5.20;4.55;;;24.80;99.90;;;;;;5016925;28;20026;-77
2023/06/24 09:14:30;;;;;;;9.40;4.00;;;24.80;99.90;;;;;;5016825;28;20091;-76
2023/06/24 09:17:01;;;;;;;5.22;3.80;;;24.90;99.90;;;;;;5016520;28;20148;-76
2023/06/24 09:19:29;;;;;;;10.00;5.25;;;24.90;99.90;;;;;;5016659;28;20033;-76
2023/06/24 09:22:04;;;;;;;7.18;4.93;;;25.00;99.90;;;;;;5016714;28;20033;-76
2023/06/24 09:24:31;;;;;;;6.38;4.43;;;25.10;99.90;;;;;;5017129;28;20065;-76
2023/06/24 09:27:00;;;;;;;8.18;3.97;;;25.00;99.90;;;;;;5016563;28;20116;-76
2023/06/24 09:29:29;;;;;;;8.88;4.82;;;25.10;99.90;;;;;;5016493;28;20026;-76
2023/06/24 09:31:56;;;;;;;4.65;3.72;;;25.10;99.90;;;;;;5016843;28;20033;-76
2023/06/24 09:34:22;;;;;;;4.63;3.22;;;24.80;99.90;;;;;;5016639;28;20092;-76
2023/06/24 09:36:53;;;;;;;8.00;3.45;;;24.70;99.90;;;;;;5016899;28;20026;-77
2023/06/24 09:39:21;;;;;;;3.25;2.95;;;24.90;99.90;;;;;;5016655;28;20060;-79
2023/06/24 09:41:50;;;;;;;13.80;3.50;;;24.90;99.90;;;;;;5016348;28;20038;-78
2023/06/24 09:44:16;;;;;;;6.53;3.08;;;24.90;99.90;;;;;;5016190;28;20026;-78
2023/06/24 09:46:43;;;;;;;5.30;3.47;;;24.90;99.90;;;;;;5016504;28;20091;-77
2023/06/24 09:49:08;;;;;;;5.63;3.55;;;25.20;99.90;;;;;;5011691;28;20105;-77
2023/06/24 09:51:38;;;;;;;5.47;3.10;;;25.40;99.90;;;;;;5008225;28;20056;-77
2023/06/24 09:54:06;;;;;;;3.38;3.03;;;25.50;99.90;;;;;;5016601;28;20057;-77
2023/06/24 09:56:36;;;;;;;4.90;3.08;;;25.50;99.90;;;;;;5015881;28;20116;-78
2023/06/24 09:59:03;;;;;;;5.93;3.78;;;25.70;99.90;;;;;;5015828;28;20026;-78
2023/06/24 10:01:31;;;;;;;4.13;3.05;;;25.50;99.90;;;;;;5016501;28;20030;-78
2023/06/24 10:03:57;;;;;;;5.35;3.70;;;25.50;99.90;;;;;;5016783;28;20084;-78
2023/06/24 10:06:24;;;;;;;5.43;3.42;;;25.70;99.90;;;;;;5019777;28;20030;-78
2023/06/24 10:08:50;;;;;;;4.82;3.25;;;25.90;99.90;;;;;;5019862;28;20022;-78
2023/06/24 10:11:15;;;;;;;4.13;3.10;;;26.20;99.90;;;;;;5020061;28;20029;-78
2023/06/24 10:13:41;;;;;;;4.22;2.90;;;26.20;99.90;;;;;;5019997;28;20037;-78
2023/06/24 10:16:06;;;;;;;4.28;3.00;;;26.30;99.90;;;;;;5019710;28;20040;-77
2023/06/24 10:18:32;;;;;;;6.43;3.85;;;26.30;99.90;;;;;;5019694;28;20026;-77
2023/06/24 10:20:58;;;;;;;5.75;3.45;;;26.50;99.90;;;;;;5019830;28;20030;-79
2023/06/24 10:23:50;;;;;;;4.53;3.55;;;26.60;99.90;;;;;;5019530;28;20073;-78
2023/06/24 10:26:36;;;;;;;4.25;3.00;;;26.70;99.90;;;;;;5019770;28;20033;-77
2023/06/24 10:29:04;;;;;;;5.38;2.95;;;26.50;99.90;;;;;;5019383;28;20161;-77
2023/06/24 10:31:39;;;;;;;3.72;2.85;;;26.40;99.90;;;;;;5019705;28;20026;-78
2023/06/24 10:34:23;;;;;;;6.38;3.38;;;26.50;99.90;;;;;;5019702;28;20022;-77
2023/06/24 10:37:03;;;;;;;4.72;3.53;;;26.80;99.90;;;;;;5019185;28;20036;-77
2023/06/24 10:39:44;;;;;;;3.85;2.80;;;27.00;99.90;;;;;;5020436;28;20034;-78
2023/06/24 10:42:38;;;;;;;4.25;2.97;;;27.20;99.90;;;;;;5019191;28;20025;-79
2023/06/24 10:45:09;;;;;;;5.03;3.00;;;27.90;99.90;;;;;;5002148;28;20023;-77
2023/06/24 10:47:36;;;;;;;7.60;3.00;;;28.20;99.90;;;;;;5016185;28;20094;-77
2023/06/24 10:50:03;;;;;;;8.45;3.08;;;28.50;99.90;;;;;;5002204;28;20045;-78
2023/06/24 10:52:29;;;;;;;4.28;3.17;;;28.50;99.90;;;;;;5009767;28;20095;-77
2023/06/24 10:54:57;;;;;;;3.78;2.95;;;28.60;99.90;;;;;;5018619;28;20026;-78
2023/06/24 10:57:27;;;;;;;4.40;3.30;;;28.90;99.90;;;;;;5019986;28;20032;-78
2023/06/24 10:59:54;;;;;;;4.68;3.30;;;29.50;99.90;;;;;;5019897;28;20072;-78
2023/06/24 11:02:25;;;;;;;6.25;3.15;;;30.60;97.00;;;;;;5019392;28;20054;-78
2023/06/24 11:04:51;;;;;;;;;;;31.50;94.10;;;;;;5019213;28;20104;-77
2023/06/24 11:07:19;;;;;;;4.22;3.20;;;31.80;92.10;;;;;;5018713;28;19910;-77
2023/06/24 11:09:52;;;;;;;4.63;2.92;;;31.90;90.20;;;;;;5019740;28;20026;-77
2023/06/24 11:12:18;;;;;;;3.80;3.33;;;31.20;90.50;;;;;;5018784;28;20026;-77
2023/06/24 11:14:44;;;;;;;4.55;3.35;;;31.10;90.50;;;;;;5019566;28;20022;-77
2023/06/24 11:17:10;;;;;;;4.20;3.25;;;30.80;90.60;;;;;;5017820;28;20037;-77
2023/06/24 11:19:39;;;;;;;4.82;3.10;;;30.90;89.60;;;;;;5018892;28;20117;-77
2023/06/24 11:22:06;;;;;;;4.00;2.90;;;31.90;86.90;;;;;;5018879;28;20109;-77
2023/06/24 11:24:32;;;;;;;4.60;3.00;;;32.90;83.90;;;;;;5018978;28;20096;-78
2023/06/24 11:26:58;;;;;;;4.55;3.38;;;33.10;81.10;;;;;;5020648;28;20034;-78
2023/06/24 11:29:24;;;;;;;3.75;2.88;;;32.30;80.40;;;;;;5019495;28;20022;-79
2023/06/24 11:31:50;;;;;;;5.80;3.33;;;32.00;81.50;;;;;;5018688;28;20022;-78
2023/06/24 11:34:17;;;;;;;3.00;2.70;;;33.00;80.00;;;;;;5018664;28;20121;-78
2023/06/24 11:36:43;;;;;;;4.80;3.65;;;32.20;80.40;;;;;;5019585;28;20076;-78
2023/06/24 11:39:08;;;;;;;3.65;2.70;;;33.40;75.80;;;;;;5018999;28;20030;-78
2023/06/24 11:41:34;;;;;;;6.20;2.92;;;34.20;74.80;;;;;;5018542;28;20028;-78
2023/06/24 11:44:00;;;;;;;3.75;3.25;;;34.40;72.90;;;;;;5018704;28;20037;-78
2023/06/24 11:46:27;;;;;;;4.57;3.20;;;33.20;73.70;;;;;;5018210;28;20022;-78
2023/06/24 11:49:03;;;;;;;3.53;2.95;;;32.50;74.80;;;;;;5018279;28;20026;-78
2023/06/24 11:51:28;;;;;;;3.17;2.85;;;33.10;75.00;;;;;;5018947;28;20057;-78
2023/06/24 11:54:08;;;;;;;4.15;3.17;;;34.10;71.40;;;;;;5019407;28;20025;-78
2023/06/24 11:56:41;;;;;;;4.97;2.95;;;34.00;71.20;;;;;;5019135;28;20026;-77
2023/06/24 11:59:19;;;;;;;4.30;3.42;;;33.20;72.80;;;;;;5018953;28;20036;-78
2023/06/24 12:01:45;;;;;;;3.72;3.17;;;32.30;72.70;;;;;;5018544;28;20056;-77
2023/06/24 12:04:14;;;;;;;4.50;3.28;;;32.30;72.70;;;;;;5017861;28;20029;-78
2023/06/24 12:06:41;;;;;;;3.20;2.88;;;33.00;71.90;;;;;;5017852;28;20030;-78
2023/06/24 12:09:08;;;;;;;3.75;3.45;;;32.80;73.50;;;;;;5018634;28;20022;-77
2023/06/24 12:11:33;;;;;;;4.03;3.30;;;33.70;69.30;;;;;;5018520;28;20018;-77
2023/06/24 12:13:59;;;;;;;4.50;2.83;;;33.70;69.10;;;;;;5017926;28;20105;-77
2023/06/24 12:16:26;;;;;;;3.90;3.20;;;34.00;68.70;;;;;;5018559;28;20022;-77
2023/06/24 12:18:52;;;;;;;5.30;2.95;;;33.40;68.50;;;;;;5017308;28;20032;-78
2023/06/24 12:21:17;;;;;;;3.30;3.03;;;33.30;70.10;;;;;;5017454;28;20029;-77
2023/06/24 12:23:43;;;;;;;4.30;3.55;;;33.90;68.00;;;;;;5017651;28;20121;-77
2023/06/24 12:26:09;;;;;;;3.22;2.90;;;33.40;67.90;;;;;;5018353;28;20032;-77
2023/06/24 12:28:34;;;;;;;3.40;3.10;;;32.60;68.20;;;;;;5017504;28;20018;-78
2023/06/24 12:30:59;;;;;;;4.10;3.25;;;31.90;69.10;;;;;;5018427;28;20026;-77
2023/06/24 12:33:25;;;;;;;3.60;3.08;;;31.60;70.80;;;;;;5017410;28;20082;-77
2023/06/24 12:35:50;;;;;;;3.95;3.42;;;32.00;70.40;;;;;;5017258;28;20048;-78
2023/06/24 12:38:16;;;;;;;4.18;3.78;;;31.80;70.30;;;;;;5017382;28;20040;-77
2023/06/24 12:40:42;;;;;;;5.90;3.40;;;31.20;71.40;;;;;;5018135;28;20025;-77
2023/06/24 12:43:08;;;;;;;4.50;3.30;;;30.90;72.80;;;;;;5017106;28;20061;-78
2023/06/24 12:45:34;;;;;;;4.32;3.38;;;30.90;73.00;;;;;;5017619;28;20057;-77
2023/06/24 12:47:59;;;;;;;4.93;3.17;;;31.40;73.50;;;;;;5017017;28;20018;-77
2023/06/24 12:50:25;;;;;;;6.75;3.55;;;31.60;74.00;;;;;;5017820;28;20045;-77